sensor_id;sensor_type;location;lat;lon;timestamp;P1;durP1;ratioP1;P2;durP2;ratioP2
58240;SDS011;45058;55.772;38.224;2022-08-19T00:01:59;17.80;;;7.88;;
58240;SDS011;45058;55.772;38.224;2022-08-19T00:04:30;20.63;;;8.30;;
58240;SDS011;45058;55.772;38.224;2022-08-19T00:06:58;17.83;;;8.35;;
58240;SDS011;45058;55.772;38.224;2022-08-19T00:09:24;27.88;;;8.57;;
58240;SDS011;45058;55.772;38.224;2022-08-19T00:11:51;17.15;;;8.52;;
58240;SDS011;45058;55.772;38.224;2022-08-19T00:14:18;17.33;;;8.27;;
58240;SDS011;45058;55.772;38.224;2022-08-19T00:16:46;26.75;;;8.63;;
58240;SDS011;45058;55.772;38.224;2022-08-19T00:19:13;22.30;;;8.82;;
58240;SDS011;45058;55.772;38.224;2022-08-19T00:21:39;19.02;;;8.73;;
58240;SDS011;45058;55.772;38.224;2022-08-19T00:24:09;17.48;;;9.15;;
58240;SDS011;45058;55.772;38.224;2022-08-19T00:26:36;19.50;;;9.82;;
58240;SDS011;45058;55.772;38.224;2022-08-19T00:29:03;22.85;;;10.35;;
58240;SDS011;45058;55.772;38.224;2022-08-19T00:31:30;20.23;;;9.93;;
58240;SDS011;45058;55.772;38.224;2022-08-19T00:33:56;24.67;;;11.15;;
58240;SDS011;45058;55.772;38.224;2022-08-19T00:36:23;20.15;;;9.80;;
58240;SDS011;45058;55.772;38.224;2022-08-19T00:38:49;19.35;;;10.77;;
58240;SDS011;45058;55.772;38.224;2022-08-19T00:41:18;35.10;;;11.35;;
58240;SDS011;45058;55.772;38.224;2022-08-19T00:43:56;18.38;;;10.60;;
58240;SDS011;45058;55.772;38.224;2022-08-19T00:46:23;20.15;;;10.20;;
58240;SDS011;45058;55.772;38.224;2022-08-19T00:48:49;32.83;;;10.88;;
58240;SDS011;45058;55.772;38.224;2022-08-19T00:51:15;18.42;;;10.30;;
58240;SDS011;45058;55.772;38.224;2022-08-19T00:53:41;29.92;;;10.32;;
58240;SDS011;45058;55.772;38.224;2022-08-19T00:56:08;22.67;;;10.02;;
58240;SDS011;45058;55.772;38.224;2022-08-19T00:58:36;25.92;;;10.30;;
58240;SDS011;45058;55.772;38.224;2022-08-19T01:01:03;22.40;;;9.93;;
58240;SDS011;45058;55.772;38.224;2022-08-19T01:03:29;20.15;;;9.57;;
58240;SDS011;45058;55.772;38.224;2022-08-19T01:05:55;17.92;;;9.57;;
58240;SDS011;45058;55.772;38.224;2022-08-19T01:08:22;17.02;;;9.90;;
58240;SDS011;45058;55.772;38.224;2022-08-19T01:10:50;22.80;;;11.15;;
58240;SDS011;45058;55.772;38.224;2022-08-19T01:13:22;24.85;;;9.85;;
58240;SDS011;45058;55.772;38.224;2022-08-19T01:15:57;22.92;;;9.32;;
58240;SDS011;45058;55.772;38.224;2022-08-19T01:18:27;16.52;;;9.43;;
58240;SDS011;45058;55.772;38.224;2022-08-19T01:20:54;20.45;;;9.32;;
58240;SDS011;45058;55.772;38.224;2022-08-19T01:23:21;18.88;;;8.90;;
58240;SDS011;45058;55.772;38.224;2022-08-19T01:28:42;16.15;;;8.50;;
58240;SDS011;45058;55.772;38.224;2022-08-19T01:31:10;15.63;;;9.30;;
58240;SDS011;45058;55.772;38.224;2022-08-19T01:33:42;18.73;;;9.60;;
58240;SDS011;45058;55.772;38.224;2022-08-19T01:36:13;16.38;;;8.40;;
58240;SDS011;45058;55.772;38.224;2022-08-19T01:38:41;21.48;;;9.35;;
58240;SDS011;45058;55.772;38.224;2022-08-19T01:41:11;22.42;;;8.40;;
58240;SDS011;45058;55.772;38.224;2022-08-19T01:43:37;17.05;;;8.57;;
58240;SDS011;45058;55.772;38.224;2022-08-19T01:46:04;15.90;;;7.78;;
58240;SDS011;45058;55.772;38.224;2022-08-19T01:48:34;21.05;;;9.30;;
58240;SDS011;45058;55.772;38.224;2022-08-19T01:51:02;23.02;;;8.77;;
58240;SDS011;45058;55.772;38.224;2022-08-19T01:53:28;17.13;;;8.18;;
58240;SDS011;45058;55.772;38.224;2022-08-19T01:55:54;16.80;;;8.32;;
58240;SDS011;45058;55.772;38.224;2022-08-19T01:58:23;17.85;;;7.95;;
58240;SDS011;45058;55.772;38.224;2022-08-19T02:00:50;19.05;;;8.40;;
58240;SDS011;45058;55.772;38.224;2022-08-19T02:03:16;15.40;;;8.35;;
58240;SDS011;45058;55.772;38.224;2022-08-19T02:05:43;20.77;;;8.23;;
58240;SDS011;45058;55.772;38.224;2022-08-19T02:08:10;16.98;;;7.82;;
58240;SDS011;45058;55.772;38.224;2022-08-19T02:10:40;16.67;;;8.07;;
58240;SDS011;45058;55.772;38.224;2022-08-19T02:13:07;18.83;;;8.40;;
58240;SDS011;45058;55.772;38.224;2022-08-19T02:15:53;15.25;;;7.32;;
58240;SDS011;45058;55.772;38.224;2022-08-19T02:18:19;14.25;;;8.30;;
58240;SDS011;45058;55.772;38.224;2022-08-19T02:20:46;27.42;;;7.85;;
58240;SDS011;45058;55.772;38.224;2022-08-19T02:23:13;16.40;;;7.32;;
58240;SDS011;45058;55.772;38.224;2022-08-19T02:25:40;15.13;;;7.43;;
58240;SDS011;45058;55.772;38.224;2022-08-19T02:28:07;22.05;;;7.43;;
58240;SDS011;45058;55.772;38.224;2022-08-19T02:30:33;18.23;;;7.13;;
58240;SDS011;45058;55.772;38.224;2022-08-19T02:32:59;20.95;;;7.30;;
58240;SDS011;45058;55.772;38.224;2022-08-19T02:35:25;17.83;;;7.45;;
58240;SDS011;45058;55.772;38.224;2022-08-19T02:37:51;12.57;;;6.63;;
58240;SDS011;45058;55.772;38.224;2022-08-19T02:40:35;16.17;;;7.40;;
58240;SDS011;45058;55.772;38.224;2022-08-19T02:43:05;23.52;;;7.20;;
58240;SDS011;45058;55.772;38.224;2022-08-19T02:45:33;24.83;;;9.23;;
58240;SDS011;45058;55.772;38.224;2022-08-19T02:48:00;20.08;;;7.55;;
58240;SDS011;45058;55.772;38.224;2022-08-19T02:50:26;22.77;;;7.10;;
58240;SDS011;45058;55.772;38.224;2022-08-19T02:52:52;16.20;;;8.43;;
58240;SDS011;45058;55.772;38.224;2022-08-19T02:55:18;15.23;;;8.30;;
58240;SDS011;45058;55.772;38.224;2022-08-19T02:57:44;20.10;;;8.32;;
58240;SDS011;45058;55.772;38.224;2022-08-19T03:00:10;19.38;;;8.05;;
58240;SDS011;45058;55.772;38.224;2022-08-19T03:02:38;18.98;;;8.38;;
58240;SDS011;45058;55.772;38.224;2022-08-19T03:05:05;17.33;;;8.40;;
58240;SDS011;45058;55.772;38.224;2022-08-19T03:07:32;21.70;;;8.35;;
58240;SDS011;45058;55.772;38.224;2022-08-19T03:09:58;13.90;;;7.82;;
58240;SDS011;45058;55.772;38.224;2022-08-19T03:12:24;16.58;;;8.60;;
58240;SDS011;45058;55.772;38.224;2022-08-19T03:14:50;16.60;;;8.15;;
58240;SDS011;45058;55.772;38.224;2022-08-19T03:17:17;17.85;;;8.68;;
58240;SDS011;45058;55.772;38.224;2022-08-19T03:19:43;22.88;;;9.02;;
58240;SDS011;45058;55.772;38.224;2022-08-19T03:22:09;17.75;;;8.80;;
58240;SDS011;45058;55.772;38.224;2022-08-19T03:24:35;19.95;;;7.90;;
58240;SDS011;45058;55.772;38.224;2022-08-19T03:27:01;23.45;;;8.65;;
58240;SDS011;45058;55.772;38.224;2022-08-19T03:29:29;30.17;;;8.68;;
58240;SDS011;45058;55.772;38.224;2022-08-19T03:31:59;18.35;;;8.10;;
58240;SDS011;45058;55.772;38.224;2022-08-19T03:34:29;14.77;;;7.03;;
58240;SDS011;45058;55.772;38.224;2022-08-19T03:36:57;15.80;;;7.60;;
58240;SDS011;45058;55.772;38.224;2022-08-19T03:39:25;14.70;;;7.43;;
58240;SDS011;45058;55.772;38.224;2022-08-19T03:41:52;18.40;;;7.63;;
58240;SDS011;45058;55.772;38.224;2022-08-19T03:44:21;15.10;;;7.70;;
58240;SDS011;45058;55.772;38.224;2022-08-19T03:46:55;16.38;;;6.53;;
58240;SDS011;45058;55.772;38.224;2022-08-19T03:49:23;14.30;;;6.43;;
58240;SDS011;45058;55.772;38.224;2022-08-19T03:51:50;16.55;;;6.30;;
58240;SDS011;45058;55.772;38.224;2022-08-19T03:54:18;13.88;;;5.75;;
58240;SDS011;45058;55.772;38.224;2022-08-19T03:56:46;17.83;;;5.85;;
58240;SDS011;45058;55.772;38.224;2022-08-19T03:59:15;20.80;;;6.07;;
58240;SDS011;45058;55.772;38.224;2022-08-19T04:01:52;14.80;;;5.85;;
58240;SDS011;45058;55.772;38.224;2022-08-19T04:04:19;9.38;;;5.07;;
58240;SDS011;45058;55.772;38.224;2022-08-19T04:06:45;15.40;;;5.50;;
58240;SDS011;45058;55.772;38.224;2022-08-19T04:09:12;13.63;;;5.47;;
58240;SDS011;45058;55.772;38.224;2022-08-19T04:11:43;18.45;;;4.75;;
58240;SDS011;45058;55.772;38.224;2022-08-19T04:14:15;7.88;;;4.20;;
58240;SDS011;45058;55.772;38.224;2022-08-19T04:16:43;13.57;;;5.15;;
58240;SDS011;45058;55.772;38.224;2022-08-19T04:19:10;12.60;;;4.72;;
58240;SDS011;45058;55.772;38.224;2022-08-19T04:21:37;11.27;;;5.07;;
58240;SDS011;45058;55.772;38.224;2022-08-19T04:24:03;9.68;;;4.80;;
58240;SDS011;45058;55.772;38.224;2022-08-19T04:26:30;14.25;;;4.20;;
58240;SDS011;45058;55.772;38.224;2022-08-19T04:28:59;15.27;;;5.20;;
58240;SDS011;45058;55.772;38.224;2022-08-19T04:31:28;13.25;;;4.93;;
58240;SDS011;45058;55.772;38.224;2022-08-19T04:33:56;21.27;;;5.53;;
58240;SDS011;45058;55.772;38.224;2022-08-19T04:36:25;10.73;;;5.32;;
58240;SDS011;45058;55.772;38.224;2022-08-19T04:39:00;10.48;;;4.85;;
58240;SDS011;45058;55.772;38.224;2022-08-19T04:41:29;14.10;;;4.90;;
58240;SDS011;45058;55.772;38.224;2022-08-19T04:44:14;9.48;;;4.88;;
58240;SDS011;45058;55.772;38.224;2022-08-19T04:46:44;11.05;;;5.93;;
58240;SDS011;45058;55.772;38.224;2022-08-19T04:49:10;11.98;;;5.60;;
58240;SDS011;45058;55.772;38.224;2022-08-19T04:51:39;18.65;;;6.05;;
58240;SDS011;45058;55.772;38.224;2022-08-19T04:54:06;19.23;;;6.82;;
58240;SDS011;45058;55.772;38.224;2022-08-19T04:56:32;10.27;;;5.05;;
58240;SDS011;45058;55.772;38.224;2022-08-19T04:58:59;14.25;;;5.80;;
58240;SDS011;45058;55.772;38.224;2022-08-19T05:01:29;16.77;;;5.78;;
58240;SDS011;45058;55.772;38.224;2022-08-19T05:03:58;11.65;;;5.10;;
58240;SDS011;45058;55.772;38.224;2022-08-19T05:06:26;18.90;;;6.13;;
58240;SDS011;45058;55.772;38.224;2022-08-19T05:08:54;22.05;;;6.15;;
58240;SDS011;45058;55.772;38.224;2022-08-19T05:11:26;14.55;;;6.20;;
58240;SDS011;45058;55.772;38.224;2022-08-19T05:13:56;13.68;;;5.53;;
58240;SDS011;45058;55.772;38.224;2022-08-19T05:16:23;17.05;;;6.80;;
58240;SDS011;45058;55.772;38.224;2022-08-19T05:18:51;22.95;;;5.55;;
58240;SDS011;45058;55.772;38.224;2022-08-19T05:21:49;14.32;;;6.65;;
58240;SDS011;45058;55.772;38.224;2022-08-19T05:24:33;15.00;;;6.03;;
58240;SDS011;45058;55.772;38.224;2022-08-19T05:27:00;14.38;;;6.32;;
58240;SDS011;45058;55.772;38.224;2022-08-19T05:29:28;17.02;;;5.43;;
58240;SDS011;45058;55.772;38.224;2022-08-19T05:31:54;12.23;;;5.63;;
58240;SDS011;45058;55.772;38.224;2022-08-19T05:34:21;15.30;;;5.57;;
58240;SDS011;45058;55.772;38.224;2022-08-19T05:36:50;16.52;;;6.20;;
58240;SDS011;45058;55.772;38.224;2022-08-19T05:39:21;15.05;;;5.50;;
58240;SDS011;45058;55.772;38.224;2022-08-19T05:41:49;10.45;;;6.30;;
58240;SDS011;45058;55.772;38.224;2022-08-19T05:44:18;11.35;;;6.18;;
58240;SDS011;45058;55.772;38.224;2022-08-19T05:46:45;17.35;;;6.32;;
58240;SDS011;45058;55.772;38.224;2022-08-19T05:49:19;19.90;;;5.93;;
58240;SDS011;45058;55.772;38.224;2022-08-19T05:51:46;19.77;;;6.65;;
58240;SDS011;45058;55.772;38.224;2022-08-19T05:54:12;13.60;;;5.03;;
58240;SDS011;45058;55.772;38.224;2022-08-19T05:56:39;16.58;;;5.78;;
58240;SDS011;45058;55.772;38.224;2022-08-19T05:59:07;24.08;;;5.88;;
58240;SDS011;45058;55.772;38.224;2022-08-19T06:01:37;11.13;;;6.00;;
58240;SDS011;45058;55.772;38.224;2022-08-19T06:04:05;11.27;;;6.03;;
58240;SDS011;45058;55.772;38.224;2022-08-19T06:06:32;16.75;;;6.07;;
58240;SDS011;45058;55.772;38.224;2022-08-19T06:09:00;15.02;;;6.10;;
58240;SDS011;45058;55.772;38.224;2022-08-19T06:14:03;13.00;;;6.00;;
58240;SDS011;45058;55.772;38.224;2022-08-19T06:16:30;14.48;;;6.07;;
58240;SDS011;45058;55.772;38.224;2022-08-19T06:19:02;17.55;;;6.03;;
58240;SDS011;45058;55.772;38.224;2022-08-19T06:21:32;9.27;;;6.10;;
58240;SDS011;45058;55.772;38.224;2022-08-19T06:23:59;14.80;;;5.80;;
58240;SDS011;45058;55.772;38.224;2022-08-19T06:26:25;12.65;;;5.82;;
58240;SDS011;45058;55.772;38.224;2022-08-19T06:28:52;17.38;;;6.00;;
58240;SDS011;45058;55.772;38.224;2022-08-19T06:31:20;14.55;;;6.20;;
58240;SDS011;45058;55.772;38.224;2022-08-19T06:33:50;20.98;;;6.63;;
58240;SDS011;45058;55.772;38.224;2022-08-19T06:36:30;12.23;;;6.10;;
58240;SDS011;45058;55.772;38.224;2022-08-19T06:39:02;16.08;;;6.63;;
58240;SDS011;45058;55.772;38.224;2022-08-19T06:41:37;10.07;;;6.60;;
58240;SDS011;45058;55.772;38.224;2022-08-19T06:44:07;15.07;;;6.97;;
58240;SDS011;45058;55.772;38.224;2022-08-19T06:46:33;20.75;;;7.40;;
58240;SDS011;45058;55.772;38.224;2022-08-19T06:49:00;18.40;;;7.05;;
58240;SDS011;45058;55.772;38.224;2022-08-19T06:51:26;13.65;;;6.32;;
58240;SDS011;45058;55.772;38.224;2022-08-19T06:53:53;13.80;;;6.88;;
58240;SDS011;45058;55.772;38.224;2022-08-19T06:56:23;18.02;;;6.53;;
58240;SDS011;45058;55.772;38.224;2022-08-19T06:59:03;16.40;;;5.75;;
58240;SDS011;45058;55.772;38.224;2022-08-19T07:01:33;20.02;;;6.30;;
58240;SDS011;45058;55.772;38.224;2022-08-19T07:04:00;20.17;;;7.57;;
58240;SDS011;45058;55.772;38.224;2022-08-19T07:06:27;13.70;;;6.05;;
58240;SDS011;45058;55.772;38.224;2022-08-19T07:08:55;13.82;;;6.38;;
58240;SDS011;45058;55.772;38.224;2022-08-19T07:11:23;19.10;;;6.15;;
58240;SDS011;45058;55.772;38.224;2022-08-19T07:13:49;15.32;;;6.95;;
58240;SDS011;45058;55.772;38.224;2022-08-19T07:16:17;18.52;;;6.80;;
58240;SDS011;45058;55.772;38.224;2022-08-19T07:18:48;11.48;;;6.05;;
58240;SDS011;45058;55.772;38.224;2022-08-19T07:21:16;14.23;;;6.38;;
58240;SDS011;45058;55.772;38.224;2022-08-19T07:23:47;16.17;;;6.32;;
58240;SDS011;45058;55.772;38.224;2022-08-19T07:26:22;14.48;;;6.15;;
58240;SDS011;45058;55.772;38.224;2022-08-19T07:28:50;28.63;;;7.32;;
58240;SDS011;45058;55.772;38.224;2022-08-19T07:31:18;17.10;;;6.28;;
58240;SDS011;45058;55.772;38.224;2022-08-19T07:33:47;13.30;;;6.50;;
58240;SDS011;45058;55.772;38.224;2022-08-19T07:36:15;28.25;;;7.57;;
58240;SDS011;45058;55.772;38.224;2022-08-19T07:38:44;17.02;;;6.50;;
58240;SDS011;45058;55.772;38.224;2022-08-19T07:41:14;41.10;;;7.38;;
58240;SDS011;45058;55.772;38.224;2022-08-19T07:43:42;37.83;;;6.78;;
58240;SDS011;45058;55.772;38.224;2022-08-19T07:46:09;22.90;;;7.05;;
58240;SDS011;45058;55.772;38.224;2022-08-19T07:48:36;30.65;;;6.80;;
58240;SDS011;45058;55.772;38.224;2022-08-19T07:51:03;14.48;;;5.43;;
58240;SDS011;45058;55.772;38.224;2022-08-19T07:53:31;13.27;;;5.30;;
58240;SDS011;45058;55.772;38.224;2022-08-19T07:55:58;28.15;;;6.07;;
58240;SDS011;45058;55.772;38.224;2022-08-19T07:58:30;18.30;;;5.15;;
58240;SDS011;45058;55.772;38.224;2022-08-19T08:00:57;19.80;;;5.18;;
58240;SDS011;45058;55.772;38.224;2022-08-19T08:03:25;19.42;;;4.80;;
58240;SDS011;45058;55.772;38.224;2022-08-19T08:06:12;25.42;;;5.10;;
58240;SDS011;45058;55.772;38.224;2022-08-19T08:08:57;16.90;;;4.32;;
58240;SDS011;45058;55.772;38.224;2022-08-19T08:11:47;16.45;;;4.60;;
58240;SDS011;45058;55.772;38.224;2022-08-19T08:14:20;15.45;;;4.60;;
58240;SDS011;45058;55.772;38.224;2022-08-19T08:16:48;22.85;;;5.30;;
58240;SDS011;45058;55.772;38.224;2022-08-19T08:19:16;19.17;;;4.90;;
58240;SDS011;45058;55.772;38.224;2022-08-19T08:21:44;16.25;;;4.82;;
58240;SDS011;45058;55.772;38.224;2022-08-19T08:24:10;22.42;;;5.05;;
58240;SDS011;45058;55.772;38.224;2022-08-19T08:26:37;20.98;;;5.70;;
58240;SDS011;45058;55.772;38.224;2022-08-19T08:29:04;13.25;;;5.65;;
58240;SDS011;45058;55.772;38.224;2022-08-19T08:31:30;17.98;;;5.22;;
58240;SDS011;45058;55.772;38.224;2022-08-19T08:33:57;15.80;;;5.03;;
58240;SDS011;45058;55.772;38.224;2022-08-19T08:36:23;14.55;;;5.60;;
58240;SDS011;45058;55.772;38.224;2022-08-19T08:38:50;20.67;;;4.30;;
58240;SDS011;45058;55.772;38.224;2022-08-19T08:43:59;20.40;;;3.85;;
58240;SDS011;45058;55.772;38.224;2022-08-19T08:49:06;9.93;;;2.88;;
58240;SDS011;45058;55.772;38.224;2022-08-19T08:52:18;25.00;;;3.25;;
58240;SDS011;45058;55.772;38.224;2022-08-19T08:54:48;22.88;;;3.95;;
58240;SDS011;45058;55.772;38.224;2022-08-19T08:57:22;16.88;;;3.33;;
58240;SDS011;45058;55.772;38.224;2022-08-19T08:59:53;22.02;;;4.10;;
58240;SDS011;45058;55.772;38.224;2022-08-19T09:02:20;12.30;;;3.85;;
58240;SDS011;45058;55.772;38.224;2022-08-19T09:04:46;12.07;;;3.72;;
58240;SDS011;45058;55.772;38.224;2022-08-19T09:09:49;11.52;;;3.47;;
58240;SDS011;45058;55.772;38.224;2022-08-19T09:17:25;36.33;;;4.05;;
58240;SDS011;45058;55.772;38.224;2022-08-19T09:19:57;20.08;;;3.60;;
58240;SDS011;45058;55.772;38.224;2022-08-19T09:22:32;10.57;;;2.70;;
58240;SDS011;45058;55.772;38.224;2022-08-19T09:24:59;18.95;;;2.75;;
58240;SDS011;45058;55.772;38.224;2022-08-19T09:27:25;19.90;;;3.80;;
58240;SDS011;45058;55.772;38.224;2022-08-19T09:29:52;18.30;;;3.30;;
58240;SDS011;45058;55.772;38.224;2022-08-19T09:32:19;17.17;;;2.70;;
58240;SDS011;45058;55.772;38.224;2022-08-19T09:34:45;16.23;;;3.22;;
58240;SDS011;45058;55.772;38.224;2022-08-19T09:37:12;54.45;;;6.25;;
58240;SDS011;45058;55.772;38.224;2022-08-19T09:39:38;9.32;;;2.78;;
58240;SDS011;45058;55.772;38.224;2022-08-19T09:42:08;14.00;;;3.30;;
58240;SDS011;45058;55.772;38.224;2022-08-19T09:44:39;14.90;;;3.10;;
58240;SDS011;45058;55.772;38.224;2022-08-19T09:47:06;22.67;;;3.15;;
58240;SDS011;45058;55.772;38.224;2022-08-19T09:49:32;15.70;;;3.08;;
58240;SDS011;45058;55.772;38.224;2022-08-19T09:51:59;10.32;;;2.90;;
58240;SDS011;45058;55.772;38.224;2022-08-19T09:54:25;11.07;;;2.90;;
58240;SDS011;45058;55.772;38.224;2022-08-19T09:56:52;9.50;;;3.38;;
58240;SDS011;45058;55.772;38.224;2022-08-19T09:59:19;16.30;;;2.90;;
58240;SDS011;45058;55.772;38.224;2022-08-19T10:01:45;31.27;;;4.53;;
58240;SDS011;45058;55.772;38.224;2022-08-19T10:04:12;16.70;;;3.40;;
58240;SDS011;45058;55.772;38.224;2022-08-19T10:06:38;14.30;;;3.00;;
58240;SDS011;45058;55.772;38.224;2022-08-19T10:09:06;9.98;;;3.03;;
58240;SDS011;45058;55.772;38.224;2022-08-19T10:11:33;10.98;;;2.88;;
58240;SDS011;45058;55.772;38.224;2022-08-19T10:14:01;76.88;;;6.47;;
58240;SDS011;45058;55.772;38.224;2022-08-19T10:16:27;19.05;;;3.72;;
58240;SDS011;45058;55.772;38.224;2022-08-19T10:18:54;16.02;;;2.70;;
58240;SDS011;45058;55.772;38.224;2022-08-19T10:21:27;8.63;;;2.92;;
58240;SDS011;45058;55.772;38.224;2022-08-19T10:23:55;13.82;;;2.35;;
58240;SDS011;45058;55.772;38.224;2022-08-19T10:26:24;15.23;;;3.38;;
58240;SDS011;45058;55.772;38.224;2022-08-19T10:28:52;8.10;;;2.58;;
58240;SDS011;45058;55.772;38.224;2022-08-19T10:31:20;8.88;;;2.67;;
58240;SDS011;45058;55.772;38.224;2022-08-19T10:33:49;15.55;;;3.10;;
58240;SDS011;45058;55.772;38.224;2022-08-19T10:36:17;14.60;;;2.72;;
58240;SDS011;45058;55.772;38.224;2022-08-19T10:38:45;6.70;;;2.35;;
58240;SDS011;45058;55.772;38.224;2022-08-19T10:41:17;13.80;;;3.00;;
58240;SDS011;45058;55.772;38.224;2022-08-19T10:43:45;4.88;;;2.60;;
58240;SDS011;45058;55.772;38.224;2022-08-19T10:46:12;10.77;;;2.53;;
58240;SDS011;45058;55.772;38.224;2022-08-19T10:48:40;9.40;;;3.20;;
58240;SDS011;45058;55.772;38.224;2022-08-19T10:51:07;13.82;;;3.70;;
58240;SDS011;45058;55.772;38.224;2022-08-19T10:53:51;10.60;;;3.20;;
58240;SDS011;45058;55.772;38.224;2022-08-19T10:56:18;8.98;;;2.47;;
58240;SDS011;45058;55.772;38.224;2022-08-19T11:01:30;12.30;;;2.85;;
58240;SDS011;45058;55.772;38.224;2022-08-19T11:03:59;13.40;;;3.22;;
58240;SDS011;45058;55.772;38.224;2022-08-19T11:06:26;7.95;;;2.80;;
58240;SDS011;45058;55.772;38.224;2022-08-19T11:08:53;12.80;;;2.92;;
58240;SDS011;45058;55.772;38.224;2022-08-19T11:11:20;15.82;;;3.30;;
58240;SDS011;45058;55.772;38.224;2022-08-19T11:13:47;6.97;;;3.35;;
58240;SDS011;45058;55.772;38.224;2022-08-19T11:16:17;10.93;;;3.50;;
58240;SDS011;45058;55.772;38.224;2022-08-19T11:18:46;8.45;;;3.33;;
58240;SDS011;45058;55.772;38.224;2022-08-19T11:21:19;12.73;;;3.45;;
58240;SDS011;45058;55.772;38.224;2022-08-19T11:23:59;11.05;;;3.17;;
58240;SDS011;45058;55.772;38.224;2022-08-19T11:26:27;22.40;;;3.75;;
58240;SDS011;45058;55.772;38.224;2022-08-19T11:28:54;9.35;;;2.92;;
58240;SDS011;45058;55.772;38.224;2022-08-19T11:31:22;15.70;;;4.53;;
58240;SDS011;45058;55.772;38.224;2022-08-19T11:33:49;13.95;;;3.13;;
58240;SDS011;45058;55.772;38.224;2022-08-19T11:36:19;8.20;;;3.33;;
58240;SDS011;45058;55.772;38.224;2022-08-19T11:38:47;7.07;;;3.42;;
58240;SDS011;45058;55.772;38.224;2022-08-19T11:41:14;18.58;;;3.80;;
58240;SDS011;45058;55.772;38.224;2022-08-19T11:43:41;16.73;;;3.20;;
58240;SDS011;45058;55.772;38.224;2022-08-19T11:46:08;32.10;;;4.82;;
58240;SDS011;45058;55.772;38.224;2022-08-19T11:48:37;11.32;;;3.30;;
58240;SDS011;45058;55.772;38.224;2022-08-19T11:51:05;15.38;;;3.28;;
58240;SDS011;45058;55.772;38.224;2022-08-19T11:53:32;10.82;;;3.75;;
58240;SDS011;45058;55.772;38.224;2022-08-19T11:55:59;7.63;;;3.42;;
58240;SDS011;45058;55.772;38.224;2022-08-19T11:58:25;12.23;;;3.50;;
58240;SDS011;45058;55.772;38.224;2022-08-19T12:00:52;14.60;;;4.00;;
58240;SDS011;45058;55.772;38.224;2022-08-19T12:03:18;20.65;;;3.33;;
58240;SDS011;45058;55.772;38.224;2022-08-19T12:05:44;10.63;;;4.35;;
58240;SDS011;45058;55.772;38.224;2022-08-19T12:08:11;15.30;;;4.57;;
58240;SDS011;45058;55.772;38.224;2022-08-19T12:10:38;16.95;;;3.63;;
58240;SDS011;45058;55.772;38.224;2022-08-19T12:13:06;15.30;;;3.05;;
58240;SDS011;45058;55.772;38.224;2022-08-19T12:15:36;6.90;;;3.08;;
58240;SDS011;45058;55.772;38.224;2022-08-19T12:18:03;11.68;;;3.45;;
58240;SDS011;45058;55.772;38.224;2022-08-19T12:20:30;12.23;;;3.60;;
58240;SDS011;45058;55.772;38.224;2022-08-19T12:22:56;18.42;;;3.38;;
58240;SDS011;45058;55.772;38.224;2022-08-19T12:25:22;9.55;;;2.97;;
58240;SDS011;45058;55.772;38.224;2022-08-19T12:27:48;19.65;;;3.70;;
58240;SDS011;45058;55.772;38.224;2022-08-19T12:30:15;11.30;;;3.20;;
58240;SDS011;45058;55.772;38.224;2022-08-19T12:32:41;14.20;;;3.03;;
58240;SDS011;45058;55.772;38.224;2022-08-19T12:35:07;11.90;;;3.58;;
58240;SDS011;45058;55.772;38.224;2022-08-19T12:37:35;23.50;;;3.50;;
58240;SDS011;45058;55.772;38.224;2022-08-19T12:40:02;9.65;;;3.50;;
58240;SDS011;45058;55.772;38.224;2022-08-19T12:42:28;17.20;;;4.15;;
58240;SDS011;45058;55.772;38.224;2022-08-19T12:44:55;9.98;;;4.00;;
58240;SDS011;45058;55.772;38.224;2022-08-19T12:47:21;8.98;;;4.13;;
58240;SDS011;45058;55.772;38.224;2022-08-19T12:49:48;11.95;;;3.70;;
58240;SDS011;45058;55.772;38.224;2022-08-19T12:52:14;14.07;;;3.83;;
58240;SDS011;45058;55.772;38.224;2022-08-19T12:54:42;10.93;;;3.60;;
58240;SDS011;45058;55.772;38.224;2022-08-19T12:57:08;14.32;;;4.13;;
58240;SDS011;45058;55.772;38.224;2022-08-19T12:59:36;17.63;;;3.78;;
58240;SDS011;45058;55.772;38.224;2022-08-19T13:02:06;18.45;;;3.88;;
58240;SDS011;45058;55.772;38.224;2022-08-19T13:04:33;15.52;;;3.28;;
58240;SDS011;45058;55.772;38.224;2022-08-19T13:07:02;8.50;;;3.20;;
58240;SDS011;45058;55.772;38.224;2022-08-19T13:09:28;17.02;;;3.78;;
58240;SDS011;45058;55.772;38.224;2022-08-19T13:11:54;15.52;;;3.72;;
58240;SDS011;45058;55.772;38.224;2022-08-19T13:14:22;16.95;;;4.03;;
58240;SDS011;45058;55.772;38.224;2022-08-19T13:16:48;11.93;;;3.75;;
58240;SDS011;45058;55.772;38.224;2022-08-19T13:19:14;16.67;;;3.72;;
58240;SDS011;45058;55.772;38.224;2022-08-19T13:21:40;14.07;;;3.78;;
58240;SDS011;45058;55.772;38.224;2022-08-19T13:24:06;7.32;;;3.40;;
58240;SDS011;45058;55.772;38.224;2022-08-19T13:26:32;13.13;;;3.65;;
58240;SDS011;45058;55.772;38.224;2022-08-19T13:28:58;20.25;;;3.72;;
58240;SDS011;45058;55.772;38.224;2022-08-19T13:31:43;11.70;;;3.53;;
58240;SDS011;45058;55.772;38.224;2022-08-19T13:34:31;10.75;;;3.15;;
58240;SDS011;45058;55.772;38.224;2022-08-19T13:37:00;13.60;;;4.32;;
58240;SDS011;45058;55.772;38.224;2022-08-19T13:39:30;10.38;;;4.22;;
58240;SDS011;45058;55.772;38.224;2022-08-19T13:41:57;15.88;;;3.70;;
58240;SDS011;45058;55.772;38.224;2022-08-19T13:44:26;14.82;;;3.53;;
58240;SDS011;45058;55.772;38.224;2022-08-19T13:46:55;28.27;;;5.20;;
58240;SDS011;45058;55.772;38.224;2022-08-19T13:49:32;15.60;;;6.53;;
58240;SDS011;45058;55.772;38.224;2022-08-19T13:52:01;15.10;;;4.93;;
58240;SDS011;45058;55.772;38.224;2022-08-19T13:54:28;13.00;;;5.22;;
58240;SDS011;45058;55.772;38.224;2022-08-19T13:56:54;12.23;;;5.88;;
58240;SDS011;45058;55.772;38.224;2022-08-19T13:59:20;18.80;;;5.63;;
58240;SDS011;45058;55.772;38.224;2022-08-19T14:01:46;15.80;;;5.07;;
58240;SDS011;45058;55.772;38.224;2022-08-19T14:04:12;11.35;;;4.35;;
58240;SDS011;45058;55.772;38.224;2022-08-19T14:06:38;17.45;;;4.07;;
58240;SDS011;45058;55.772;38.224;2022-08-19T14:09:04;20.65;;;4.35;;
58240;SDS011;45058;55.772;38.224;2022-08-19T14:11:31;14.93;;;4.30;;
58240;SDS011;45058;55.772;38.224;2022-08-19T14:13:57;7.10;;;3.28;;
58240;SDS011;45058;55.772;38.224;2022-08-19T14:16:23;12.70;;;3.92;;
58240;SDS011;45058;55.772;38.224;2022-08-19T14:18:50;24.25;;;3.63;;
58240;SDS011;45058;55.772;38.224;2022-08-19T14:21:17;19.02;;;4.53;;
58240;SDS011;45058;55.772;38.224;2022-08-19T14:23:46;15.90;;;4.00;;
58240;SDS011;45058;55.772;38.224;2022-08-19T14:26:14;20.08;;;3.60;;
58240;SDS011;45058;55.772;38.224;2022-08-19T14:28:42;13.90;;;3.90;;
58240;SDS011;45058;55.772;38.224;2022-08-19T14:31:09;16.63;;;4.10;;
58240;SDS011;45058;55.772;38.224;2022-08-19T14:33:36;16.95;;;4.93;;
58240;SDS011;45058;55.772;38.224;2022-08-19T14:36:03;11.20;;;4.10;;
58240;SDS011;45058;55.772;38.224;2022-08-19T14:38:29;14.52;;;3.50;;
58240;SDS011;45058;55.772;38.224;2022-08-19T14:41:10;17.23;;;3.95;;
58240;SDS011;45058;55.772;38.224;2022-08-19T14:43:41;16.80;;;3.28;;
58240;SDS011;45058;55.772;38.224;2022-08-19T14:46:11;9.27;;;3.33;;
58240;SDS011;45058;55.772;38.224;2022-08-19T14:48:38;9.07;;;3.25;;
58240;SDS011;45058;55.772;38.224;2022-08-19T14:51:05;14.38;;;3.33;;
58240;SDS011;45058;55.772;38.224;2022-08-19T14:53:31;7.93;;;3.53;;